createdAt,value
2023-10-15T00:00:41.199Z,100497.56
2023-10-15T00:03:29.866Z,100493.30
2023-10-15T00:05:58.162Z,100496.13
2023-10-15T00:08:26.560Z,100498.91
2023-10-15T00:10:54.738Z,100492.55
2023-10-15T00:13:23.012Z,100490.96
2023-10-15T00:15:52.514Z,100489.19
2023-10-15T00:18:20.717Z,100486.21
2023-10-15T00:20:48.859Z,100473.61
2023-10-15T00:23:17.080Z,100493.27
2023-10-15T00:25:49.188Z,100488.19
2023-10-15T00:28:17.677Z,100488.08
2023-10-15T00:30:46.066Z,100486.42
2023-10-15T00:33:14.406Z,100485.45
2023-10-15T00:35:51.389Z,100483.23
2023-10-15T00:38:20.855Z,100485.63
2023-10-15T00:41:02.013Z,100489.61
2023-10-15T00:43:31.950Z,100486.56
2023-10-15T00:46:02.544Z,100483.19
2023-10-15T00:48:37.826Z,100478.39
2023-10-15T00:51:12.866Z,100475.31
2023-10-15T00:53:55.937Z,100478.73
2023-10-15T00:56:29.330Z,100476.20
2023-10-15T00:59:10.052Z,100482.02
2023-10-15T01:01:44.080Z,100458.34
2023-10-15T01:04:12.557Z,100480.20
2023-10-15T01:06:44.831Z,100475.92
2023-10-15T01:09:41.170Z,100469.21
2023-10-15T01:12:26.476Z,100473.08
2023-10-15T01:14:54.610Z,100470.40
2023-10-15T01:17:27.387Z,100457.09
2023-10-15T01:19:55.824Z,100471.70
2023-10-15T01:22:25.393Z,100466.93
2023-10-15T01:24:56.986Z,100465.65
2023-10-15T01:27:32.000Z,100467.52
2023-10-15T01:30:01.183Z,100470.80
2023-10-15T01:32:33.201Z,100469.66
2023-10-15T01:35:02.723Z,100465.19
2023-10-15T01:37:31.769Z,100467.56
2023-10-15T01:40:17.326Z,100474.12
2023-10-15T01:42:53.152Z,100477.68
2023-10-15T01:45:33.286Z,100471.91
2023-10-15T01:48:07.011Z,100478.45
2023-10-15T01:50:45.446Z,100476.96
2023-10-15T01:53:13.843Z,100465.38
2023-10-15T01:55:54.664Z,100469.48
2023-10-15T01:58:25.920Z,100466.77
2023-10-15T02:00:54.381Z,100465.45
2023-10-15T02:03:22.702Z,100461.88
2023-10-15T02:05:55.548Z,100466.17
2023-10-15T02:08:26.741Z,100463.39
2023-10-15T02:10:59.813Z,100465.75
2023-10-15T02:13:29.027Z,100464.79
2023-10-15T02:15:57.730Z,100463.43
2023-10-15T02:18:31.176Z,100454.23
2023-10-15T02:20:59.562Z,100470.86
2023-10-15T02:23:28.596Z,100476.70
2023-10-15T02:26:00.865Z,100459.88
2023-10-15T02:28:33.569Z,100485.46
2023-10-15T02:31:05.959Z,100487.92
2023-10-15T02:33:34.376Z,100497.78
2023-10-15T02:36:08.629Z,100499.06
2023-10-15T02:38:53.549Z,100502.06
2023-10-15T02:41:44.286Z,100508.97
2023-10-15T02:44:15.337Z,100506.63
2023-10-15T02:46:49.480Z,100503.67
2023-10-15T02:49:18.506Z,100506.54
2023-10-15T02:51:50.002Z,100510.77
2023-10-15T02:54:41.533Z,100520.31
2023-10-15T02:57:16.403Z,100518.09
2023-10-15T02:59:51.883Z,100523.83
2023-10-15T03:02:26.989Z,100527.92
2023-10-15T03:05:07.361Z,100533.22
2023-10-15T03:07:35.556Z,100528.69
2023-10-15T03:10:05.009Z,100511.65
2023-10-15T03:12:35.060Z,100532.27
2023-10-15T03:15:05.195Z,100531.39
2023-10-15T03:17:42.014Z,100532.10
2023-10-15T03:20:17.576Z,100538.23
2023-10-15T03:22:53.064Z,100532.72
2023-10-15T03:25:22.172Z,100533.74
2023-10-15T03:27:55.319Z,100530.95
2023-10-15T03:30:25.074Z,100537.35
2023-10-15T03:32:54.193Z,100545.25
2023-10-15T03:35:40.688Z,100551.88
2023-10-15T03:38:15.381Z,100549.59
2023-10-15T03:40:51.655Z,100550.30
2023-10-15T03:43:22.930Z,100547.43
2023-10-15T03:45:54.613Z,100548.59
2023-10-15T03:48:29.607Z,100544.52
2023-10-15T03:50:59.771Z,100549.38
2023-10-15T03:53:29.661Z,100544.74
2023-10-15T03:56:02.832Z,100548.06
2023-10-15T03:58:34.103Z,100545.39
2023-10-15T04:01:14.935Z,100541.27
2023-10-15T04:03:44.726Z,100539.80
2023-10-15T04:06:15.043Z,100538.05
2023-10-15T04:09:02.855Z,100539.58
2023-10-15T04:11:44.321Z,100542.43
2023-10-15T04:14:15.629Z,100539.10
2023-10-15T04:16:44.997Z,100534.17
2023-10-15T04:19:17.841Z,100529.85
2023-10-15T04:21:46.695Z,100526.59
2023-10-15T04:24:15.767Z,100531.10
2023-10-15T04:26:45.645Z,100530.05
2023-10-15T04:29:20.018Z,100535.98
2023-10-15T04:32:02.105Z,100531.09
2023-10-15T04:34:32.775Z,100534.42
2023-10-15T04:37:08.386Z,100533.70
2023-10-15T04:39:52.724Z,100532.91
2023-10-15T04:42:30.416Z,100534.38
2023-10-15T04:45:01.278Z,100528.66
2023-10-15T04:47:39.118Z,100510.22
2023-10-15T04:50:16.324Z,100530.45
2023-10-15T04:52:44.960Z,100530.79
2023-10-15T04:55:18.436Z,100532.55
2023-10-15T04:57:47.065Z,100516.81
2023-10-15T05:00:18.218Z,100533.07
2023-10-15T05:02:46.488Z,100532.56
2023-10-15T05:05:14.802Z,100534.67
2023-10-15T05:07:43.123Z,100540.64
2023-10-15T05:10:11.431Z,100543.64
2023-10-15T05:12:39.728Z,100530.92
2023-10-15T05:15:14.539Z,100548.94
2023-10-15T05:17:44.894Z,100545.63
2023-10-15T05:20:14.899Z,100542.31
2023-10-15T05:22:43.195Z,100538.40
2023-10-15T05:25:18.765Z,100540.48
2023-10-15T05:27:53.085Z,100540.60
2023-10-15T05:30:21.281Z,100551.06
2023-10-15T05:32:49.840Z,100549.60
2023-10-15T05:35:19.298Z,100551.55
2023-10-15T05:37:47.524Z,100547.89
2023-10-15T05:40:18.212Z,100547.39
2023-10-15T05:42:46.491Z,100543.65
2023-10-15T05:45:26.218Z,100543.94
2023-10-15T05:48:05.381Z,100543.63
2023-10-15T05:50:33.502Z,100540.94
2023-10-15T05:53:01.938Z,100542.17
2023-10-15T05:55:30.548Z,100543.73
2023-10-15T05:57:59.824Z,100538.45
2023-10-15T06:00:28.186Z,100542.11
2023-10-15T06:02:58.327Z,100541.05
2023-10-15T06:05:28.740Z,100547.65
2023-10-15T06:07:56.921Z,100547.77
2023-10-15T06:10:25.144Z,100545.77
2023-10-15T06:12:53.387Z,100541.98
2023-10-15T06:15:23.768Z,100545.39
2023-10-15T06:17:53.768Z,100545.21
2023-10-15T06:20:22.167Z,100551.08
2023-10-15T06:22:56.467Z,100550.52
2023-10-15T06:25:25.914Z,100561.04
2023-10-15T06:27:54.462Z,100570.65
2023-10-15T06:30:24.883Z,100576.05
2023-10-15T06:32:56.393Z,100582.63
2023-10-15T06:35:27.070Z,100584.41
2023-10-15T06:37:59.600Z,100585.62
2023-10-15T06:40:29.973Z,100585.54
2023-10-15T06:43:05.092Z,100590.25
2023-10-15T06:45:34.784Z,100589.22
2023-10-15T06:48:04.235Z,100588.98
2023-10-15T06:50:32.601Z,100591.36
2023-10-15T06:53:06.753Z,100594.37
2023-10-15T06:55:36.465Z,100591.31
2023-10-15T06:58:04.831Z,100588.47
2023-10-15T07:00:33.316Z,100587.30
2023-10-15T07:03:01.946Z,100587.40
2023-10-15T07:05:30.184Z,100536.09
2023-10-15T07:07:58.811Z,100577.63
2023-10-15T07:10:27.690Z,100584.17
2023-10-15T07:12:58.563Z,100583.95
2023-10-15T07:15:27.153Z,100574.44
2023-10-15T07:17:56.070Z,100569.53
2023-10-15T07:20:28.980Z,100588.70
2023-10-15T07:23:01.661Z,100597.33
2023-10-15T07:25:30.607Z,100600.21
2023-10-15T07:28:00.829Z,100607.00
2023-10-15T07:30:32.220Z,100612.73
2023-10-15T07:33:00.887Z,100606.11
2023-10-15T07:35:31.038Z,100605.03
2023-10-15T07:38:03.701Z,100599.52
2023-10-15T07:40:34.649Z,100606.41
2023-10-15T07:43:04.339Z,100601.20
2023-10-15T07:45:34.287Z,100591.20
2023-10-15T07:48:05.158Z,100599.23
2023-10-15T07:50:35.743Z,100599.56
2023-10-15T07:53:05.780Z,100611.91
2023-10-15T07:55:34.753Z,100615.97
2023-10-15T07:58:03.450Z,100615.99
2023-10-15T08:00:32.443Z,100607.27
2023-10-15T08:03:02.732Z,100611.83
2023-10-15T08:05:34.299Z,100614.65
2023-10-15T08:08:06.153Z,100614.66
2023-10-15T08:10:36.984Z,100622.67
2023-10-15T08:13:08.452Z,100621.92
2023-10-15T08:15:37.670Z,100629.36
2023-10-15T08:18:06.514Z,100635.06
2023-10-15T08:20:34.916Z,100638.40
2023-10-15T08:23:03.514Z,100628.98
2023-10-15T08:25:35.595Z,100643.20
2023-10-15T08:28:05.148Z,100636.88
2023-10-15T08:30:34.490Z,100644.17
2023-10-15T08:33:05.170Z,100644.04
2023-10-15T08:35:34.338Z,100641.29
2023-10-15T08:38:02.694Z,100651.95
2023-10-15T08:40:40.694Z,100628.42
2023-10-15T08:43:25.404Z,100657.55
2023-10-15T08:45:54.361Z,100665.31
2023-10-15T08:48:26.694Z,100663.84
2023-10-15T08:50:58.848Z,100639.23
2023-10-15T08:53:28.550Z,100662.88
2023-10-15T08:55:59.128Z,100663.27
2023-10-15T08:58:27.816Z,100658.77
2023-10-15T09:00:58.858Z,100655.17
2023-10-15T09:03:28.178Z,100655.14
2023-10-15T09:05:57.823Z,100665.50
2023-10-15T09:08:26.308Z,100663.76
2023-10-15T09:10:54.710Z,100663.02
2023-10-15T09:13:23.731Z,100668.19
2023-10-15T09:15:57.066Z,100646.59
2023-10-15T09:18:29.075Z,100673.23
2023-10-15T09:21:00.046Z,100658.22
2023-10-15T09:23:32.380Z,100662.44
2023-10-15T09:26:00.828Z,100681.24
2023-10-15T09:28:30.269Z,100662.33
2023-10-15T09:31:10.778Z,100684.10
2023-10-15T09:33:40.563Z,100688.35
2023-10-15T09:36:09.239Z,100689.23
2023-10-15T09:38:38.346Z,100699.02
2023-10-15T09:41:11.559Z,100688.00
2023-10-15T09:43:40.077Z,100694.02
2023-10-15T09:46:08.934Z,100703.92
2023-10-15T09:48:39.029Z,100700.39
2023-10-15T09:51:11.065Z,100703.55
2023-10-15T09:53:43.432Z,100697.11
2023-10-15T09:56:14.391Z,100690.17
2023-10-15T09:58:44.432Z,100691.36
2023-10-15T10:01:29.963Z,100687.11
2023-10-15T10:04:17.884Z,100690.95
2023-10-15T10:06:48.895Z,100694.17
2023-10-15T10:09:55.367Z,100692.10
2023-10-15T10:13:00.336Z,100703.80
2023-10-15T10:15:37.527Z,100694.24
2023-10-15T10:18:06.935Z,100691.28
2023-10-15T10:20:38.863Z,100699.95
2023-10-15T10:23:08.924Z,100691.76
2023-10-15T10:25:43.884Z,100701.08
2023-10-15T10:28:17.260Z,100695.70
2023-10-15T10:30:57.210Z,100700.33
2023-10-15T10:33:43.906Z,100702.45
2023-10-15T10:36:19.404Z,100712.52
2023-10-15T10:39:09.778Z,100705.50
2023-10-15T10:41:43.045Z,100709.48
2023-10-15T10:44:40.246Z,100715.56
2023-10-15T10:47:23.724Z,100711.35
2023-10-15T10:49:57.803Z,100716.70
2023-10-15T10:52:30.769Z,100711.39
2023-10-15T10:55:32.471Z,100714.84
2023-10-15T10:58:08.269Z,100708.73
2023-10-15T11:00:36.517Z,100711.14
2023-10-15T11:03:08.320Z,100711.30
2023-10-15T11:05:37.348Z,100706.91
2023-10-15T11:08:16.992Z,100707.11
2023-10-15T11:10:46.973Z,100684.92
2023-10-15T11:13:16.928Z,100700.11
2023-10-15T11:15:46.219Z,100701.52
2023-10-15T11:18:21.633Z,100710.36
2023-10-15T11:20:51.820Z,100709.24
2023-10-15T11:23:25.386Z,100710.65
2023-10-15T11:25:57.830Z,100707.60
2023-10-15T11:28:26.178Z,100713.80
2023-10-15T11:30:55.177Z,100716.44
2023-10-15T11:33:24.335Z,100715.30
2023-10-15T11:35:55.285Z,100708.84
2023-10-15T11:38:33.266Z,100689.02
2023-10-15T11:41:03.536Z,100713.62
2023-10-15T11:43:33.848Z,100705.45
2023-10-15T11:46:09.280Z,100713.23
2023-10-15T11:48:39.083Z,100711.06
2023-10-15T11:51:09.592Z,100714.06
2023-10-15T11:53:42.411Z,100710.30
2023-10-15T11:56:18.214Z,100699.98
2023-10-15T11:58:47.032Z,100697.80
2023-10-15T12:01:16.456Z,100695.34
2023-10-15T12:03:44.945Z,100697.01
2023-10-15T12:06:14.003Z,100687.20
2023-10-15T12:08:42.138Z,100679.90
2023-10-15T12:11:10.300Z,100672.04
2023-10-15T12:13:40.913Z,100666.36
2023-10-15T12:16:09.270Z,100669.89
2023-10-15T12:18:37.735Z,100668.98
2023-10-15T12:21:07.365Z,100672.45
2023-10-15T12:23:35.562Z,100677.56
2023-10-15T12:26:08.893Z,100671.97
2023-10-15T12:28:48.422Z,100670.45
2023-10-15T12:31:16.855Z,100666.95
2023-10-15T12:33:45.152Z,100669.02
2023-10-15T12:36:14.124Z,100677.82
2023-10-15T12:38:44.064Z,100668.42
2023-10-15T12:41:12.417Z,100668.42
2023-10-15T12:43:41.776Z,100672.84
2023-10-15T12:46:09.989Z,100669.62
2023-10-15T12:48:38.131Z,100678.84
2023-10-15T12:51:06.345Z,100677.05
2023-10-15T12:53:34.471Z,100677.48
2023-10-15T12:56:02.573Z,100679.03
2023-10-15T12:58:30.812Z,100661.98
2023-10-15T13:00:59.585Z,100681.52
2023-10-15T13:03:28.861Z,100677.83
2023-10-15T13:05:57.073Z,100673.55
2023-10-15T13:08:25.255Z,100678.02
2023-10-15T13:10:54.199Z,100684.27
2023-10-15T13:13:22.383Z,100690.89
2023-10-15T13:15:50.659Z,100688.27
2023-10-15T13:18:18.945Z,100689.86
2023-10-15T13:20:47.213Z,100681.70
2023-10-15T13:23:15.717Z,100668.17
2023-10-15T13:25:43.919Z,100684.61
2023-10-15T13:28:13.024Z,100663.91
2023-10-15T13:30:41.442Z,100681.73
2023-10-15T13:33:10.942Z,100641.90
2023-10-15T13:35:39.554Z,100683.12
2023-10-15T13:38:09.826Z,100679.29
2023-10-15T13:40:40.106Z,100667.09
2023-10-15T13:43:09.834Z,100669.10
2023-10-15T13:45:39.306Z,100679.70
2023-10-15T13:48:07.607Z,100681.45
2023-10-15T13:50:36.542Z,100677.27
2023-10-15T13:53:05.160Z,100682.59
2023-10-15T13:55:34.291Z,100683.02
2023-10-15T13:58:02.547Z,100679.79
2023-10-15T14:00:32.921Z,100677.60
2023-10-15T14:03:01.496Z,100678.86
2023-10-15T14:05:34.140Z,100696.95
2023-10-15T14:08:02.661Z,100694.45
2023-10-15T14:10:31.942Z,100693.26
2023-10-15T14:13:13.543Z,100698.95
2023-10-15T14:15:45.343Z,100707.67
2023-10-15T14:18:13.730Z,100719.11
2023-10-15T14:20:41.982Z,100725.30
2023-10-15T14:23:10.799Z,100705.48
2023-10-15T14:25:39.499Z,100742.52
2023-10-15T14:28:07.584Z,100747.52
2023-10-15T14:30:36.998Z,100750.80
2023-10-15T14:33:05.175Z,100751.04
2023-10-15T14:35:35.286Z,100753.33
2023-10-15T14:38:04.110Z,100745.96
2023-10-15T14:40:33.242Z,100748.40
2023-10-15T14:43:01.377Z,100750.05
2023-10-15T14:45:29.549Z,100749.81
2023-10-15T14:47:57.680Z,100749.44
2023-10-15T14:50:26.617Z,100755.23
2023-10-15T14:52:54.776Z,100757.15
2023-10-15T14:55:23.148Z,100755.16
2023-10-15T14:57:51.471Z,100757.44
2023-10-15T15:00:19.965Z,100768.85
2023-10-15T15:02:48.178Z,100759.69
2023-10-15T15:05:17.664Z,100758.05
2023-10-15T15:07:45.945Z,100762.08
2023-10-15T15:10:16.469Z,100766.46
2023-10-15T15:12:45.124Z,100770.51
2023-10-15T15:15:17.666Z,100775.55
2023-10-15T15:17:46.053Z,100775.77
2023-10-15T15:20:14.253Z,100780.14
2023-10-15T15:22:43.267Z,100781.40
2023-10-15T15:25:11.982Z,100784.05
2023-10-15T15:27:42.855Z,100780.77
2023-10-15T15:30:11.697Z,100773.73
2023-10-15T15:32:40.025Z,100776.23
2023-10-15T15:35:09.073Z,100770.05
2023-10-15T15:37:37.539Z,100764.51
2023-10-15T15:40:06.613Z,100758.28
2023-10-15T15:42:34.760Z,100766.95
2023-10-15T15:45:02.894Z,100748.87
2023-10-15T15:47:31.118Z,100768.71
2023-10-15T15:49:59.344Z,100751.81
2023-10-15T15:52:27.622Z,100769.55
2023-10-15T15:54:57.296Z,100775.91
2023-10-15T15:57:25.455Z,100773.29
2023-10-15T15:59:53.583Z,100776.52
2023-10-15T16:02:21.852Z,100770.11
2023-10-15T16:04:50.242Z,100779.09
2023-10-15T16:07:18.519Z,100780.38
2023-10-15T16:09:46.857Z,100783.75
2023-10-15T16:12:15.087Z,100791.52
2023-10-15T16:14:43.223Z,100795.40
2023-10-15T16:17:11.548Z,100794.39
2023-10-15T16:19:40.432Z,100795.98
2023-10-15T16:22:09.825Z,100798.34
2023-10-15T16:24:38.095Z,100801.38
2023-10-15T16:27:06.241Z,100808.99
2023-10-15T16:29:36.831Z,100801.16
2023-10-15T16:32:06.689Z,100805.14
2023-10-15T16:34:35.052Z,100810.70
2023-10-15T16:37:03.277Z,100807.45
2023-10-15T16:39:31.417Z,100805.25
2023-10-15T16:42:00.500Z,100805.20
2023-10-15T16:44:28.915Z,100808.85
2023-10-15T16:46:57.884Z,100804.75
2023-10-15T16:49:26.308Z,100800.97
2023-10-15T16:51:55.613Z,100798.72
2023-10-15T16:54:24.035Z,100795.42
2023-10-15T16:56:52.443Z,100796.67
2023-10-15T16:59:21.774Z,100798.05
2023-10-15T17:01:50.462Z,100796.27
2023-10-15T17:04:18.661Z,100797.36
2023-10-15T17:06:46.897Z,100797.21
2023-10-15T17:09:15.148Z,100783.38
2023-10-15T17:11:43.400Z,100804.50
2023-10-15T17:14:11.699Z,100807.69
2023-10-15T17:16:39.812Z,100803.89
2023-10-15T17:19:07.980Z,100806.01
2023-10-15T17:21:36.119Z,100795.33
2023-10-15T17:24:04.654Z,100795.09
2023-10-15T17:26:33.507Z,100791.14
2023-10-15T17:29:05.175Z,100786.36
2023-10-15T17:31:33.336Z,100762.52
2023-10-15T17:34:02.712Z,100782.59
2023-10-15T17:36:35.687Z,100774.11
2023-10-15T17:39:12.499Z,100772.14
2023-10-15T17:41:40.618Z,100769.94
2023-10-15T17:44:08.876Z,100764.90
2023-10-15T17:46:37.147Z,100769.12
2023-10-15T17:49:05.613Z,100766.64
2023-10-15T17:51:34.262Z,100771.92
2023-10-15T17:54:02.450Z,100768.09
2023-10-15T17:56:32.537Z,100764.38
2023-10-15T17:59:01.062Z,100760.88
2023-10-15T18:01:29.400Z,100763.49
2023-10-15T18:03:57.700Z,100760.29
2023-10-15T18:06:26.137Z,100759.20
2023-10-15T18:08:54.353Z,100761.10
2023-10-15T18:11:22.703Z,100760.34
2023-10-15T18:13:50.930Z,100759.09
2023-10-15T18:16:19.679Z,100763.27
2023-10-15T18:18:48.524Z,100763.52
2023-10-15T18:21:17.707Z,100766.27
2023-10-15T18:23:46.428Z,100744.44
2023-10-15T18:26:14.548Z,100741.05
2023-10-15T18:28:43.131Z,100762.42
2023-10-15T18:31:11.328Z,100758.70
2023-10-15T18:33:39.514Z,100761.10
2023-10-15T18:36:08.019Z,100760.38
2023-10-15T18:38:36.188Z,100740.78
2023-10-15T18:41:05.322Z,100767.54
2023-10-15T18:43:35.689Z,100763.05
2023-10-15T18:46:05.697Z,100757.90
2023-10-15T18:48:36.536Z,100766.63
2023-10-15T18:51:15.752Z,100769.71
2023-10-15T18:53:52.925Z,100723.62
2023-10-15T18:56:21.033Z,100768.55
2023-10-15T18:58:49.936Z,100772.38
2023-10-15T19:01:21.174Z,100777.07
2023-10-15T19:03:49.781Z,100774.90
2023-10-15T19:06:18.317Z,100773.11
2023-10-15T19:08:47.003Z,100770.29
2023-10-15T19:11:15.214Z,100774.17
2023-10-15T19:13:44.199Z,100780.19
2023-10-15T19:16:12.336Z,100781.45
2023-10-15T19:18:43.281Z,100785.58
2023-10-15T19:21:12.089Z,100785.61
2023-10-15T19:23:40.491Z,100789.05
2023-10-15T19:26:10.155Z,100792.18
2023-10-15T19:28:39.436Z,100791.37
2023-10-15T19:31:09.178Z,100796.69
2023-10-15T19:33:37.533Z,100797.77
2023-10-15T19:36:06.035Z,100797.09
2023-10-15T19:38:34.260Z,100797.14
2023-10-15T19:41:05.556Z,100803.70
2023-10-15T19:43:33.729Z,100801.17
2023-10-15T19:46:05.318Z,100799.20
2023-10-15T19:48:34.970Z,100797.57
2023-10-15T19:51:04.320Z,100800.94
2023-10-15T19:53:32.542Z,100802.58
2023-10-15T19:56:00.949Z,100810.21
2023-10-15T19:58:29.457Z,100808.03
2023-10-15T20:00:59.341Z,100810.03
2023-10-15T20:03:28.368Z,100814.00
2023-10-15T20:05:58.962Z,100812.67
2023-10-15T20:08:27.127Z,100790.00
2023-10-15T20:10:55.538Z,100810.80
2023-10-15T20:13:23.745Z,100810.84
2023-10-15T20:15:52.060Z,100808.59
2023-10-15T20:18:20.303Z,100811.82
2023-10-15T20:20:48.580Z,100795.08
2023-10-15T20:23:16.671Z,100818.41
2023-10-15T20:25:45.360Z,100816.38
2023-10-15T20:28:14.130Z,100810.45
2023-10-15T20:30:42.316Z,100816.14
2023-10-15T20:33:10.539Z,100810.10
2023-10-15T20:35:39.064Z,100815.45
2023-10-15T20:38:07.669Z,100808.39
2023-10-15T20:40:35.809Z,100787.65
2023-10-15T20:43:04.094Z,100804.94
2023-10-15T20:45:32.598Z,100805.23
2023-10-15T20:48:00.919Z,100800.73
2023-10-15T20:50:29.142Z,100793.15
2023-10-15T20:52:59.475Z,100795.67
2023-10-15T20:55:27.837Z,100799.95
2023-10-15T20:57:55.997Z,100800.65
2023-10-15T21:00:25.131Z,100808.38
2023-10-15T21:02:54.690Z,100801.19
2023-10-15T21:05:23.199Z,100803.83
2023-10-15T21:07:51.839Z,100810.21
2023-10-15T21:10:23.375Z,100814.50
2023-10-15T21:12:52.267Z,100814.91
2023-10-15T21:15:20.725Z,100817.04
2023-10-15T21:17:48.952Z,100820.79
2023-10-15T21:20:17.400Z,100824.00
2023-10-15T21:22:45.543Z,100826.36
2023-10-15T21:25:14.304Z,100823.42
2023-10-15T21:27:43.153Z,100832.64
2023-10-15T21:30:13.514Z,100829.70
2023-10-15T21:32:41.875Z,100826.09
2023-10-15T21:35:11.173Z,100829.25
2023-10-15T21:37:42.516Z,100826.61
2023-10-15T21:40:16.518Z,100822.95
2023-10-15T21:42:44.887Z,100811.17
2023-10-15T21:45:13.368Z,100815.55
2023-10-15T21:47:43.591Z,100813.02
2023-10-15T21:50:17.668Z,100812.09
2023-10-15T21:52:48.829Z,100809.39
2023-10-15T21:55:16.965Z,100812.50
2023-10-15T21:57:45.265Z,100809.76
2023-10-15T22:00:49.302Z,100807.22
2023-10-15T22:03:18.344Z,100809.40
2023-10-15T22:05:46.641Z,100786.23
2023-10-15T22:08:14.800Z,100810.42
2023-10-15T22:10:44.162Z,100809.73
2023-10-15T22:13:19.257Z,100813.09
2023-10-15T22:15:53.425Z,100815.41
2023-10-15T22:18:24.458Z,100814.59
2023-10-15T22:20:53.861Z,100813.30
2023-10-15T22:23:22.611Z,100795.11
2023-10-15T22:25:53.080Z,100825.44
2023-10-15T22:28:26.668Z,100825.98
2023-10-15T22:30:56.578Z,100827.60
2023-10-15T22:33:27.825Z,100830.06
2023-10-15T22:35:56.113Z,100836.09
2023-10-15T22:38:24.299Z,100840.17
2023-10-15T22:40:56.767Z,100845.42
2023-10-15T22:43:25.549Z,100853.33
2023-10-15T22:45:53.803Z,100858.25
2023-10-15T22:48:22.185Z,100852.28
2023-10-15T22:50:50.628Z,100848.86
2023-10-15T22:53:18.725Z,100859.40
2023-10-15T22:55:47.752Z,100863.91
2023-10-15T22:58:19.402Z,100861.89
2023-10-15T23:00:51.909Z,100854.98
2023-10-15T23:03:20.909Z,100856.67
2023-10-15T23:05:50.557Z,100860.12
2023-10-15T23:08:19.762Z,100864.06
2023-10-15T23:10:48.042Z,100837.02
2023-10-15T23:13:19.037Z,100857.73
2023-10-15T23:15:47.477Z,100851.88
2023-10-15T23:18:18.378Z,100851.63
2023-10-15T23:20:52.540Z,100849.77
2023-10-15T23:23:22.756Z,100843.77
2023-10-15T23:25:53.524Z,100838.67
2023-10-15T23:28:25.259Z,100838.00
2023-10-15T23:30:57.924Z,100842.03
2023-10-15T23:33:30.267Z,100844.96
2023-10-15T23:35:59.756Z,100848.44
2023-10-15T23:38:28.079Z,100852.63
2023-10-15T23:40:56.236Z,100854.17
2023-10-15T23:43:25.546Z,100856.44
2023-10-15T23:45:57.004Z,100857.81
2023-10-15T23:48:29.068Z,100863.08
2023-10-15T23:50:58.661Z,100865.88
2023-10-15T23:53:36.037Z,100870.25
2023-10-15T23:56:14.643Z,100871.29
2023-10-15T23:58:59.294Z,100876.14
